Terminal Aerodrome Forecast
Issued by NWS

Home | Current Version | Previous Version | Text Only | Print | Product List | Glossary On
Versions: 1 2 3 4 5 6 7 8 9 10 11 12 13 14 15 16 17 18 19 20
000
FTUS41 KBOX 270543 AAB
TAFHYA
TAF AMD
KHYA 270543Z 2706/2806 VRB03KT P6SM SKC
     FM271500 16007KT P6SM BKN150
     FM271700 14008KT P6SM VCSH BKN100
     FM272000 14010G17KT P6SM -RA OVC040
     FM272100 14010G18KT P6SM -RA OVC015
     FM272300 16011G19KT 3SM -RA BR OVC008
     FM280100 19010G17KT 1SM -RA BR OVC003
     FM280300 20009KT 3/4SM BR VCSH OVC003=

USA.gov is the U.S. government's official web portal to all federal, state and local government web resources and services.